Magestic — J8QP6 — position and weather

sailwx.info

Track history (hours):
 
Tides and Currents Weather Stations Pressure Air Temp Water Temp Dewpoint Dewpoint Depression Visibility Wind Speed Wind Dir Waves Ship Positions

Magestic

Last reported at 2018-Jun-11 19:51 UTC. Time now 2018-Jun-25 00:19 UTC.
Position N 25°34' W 079°39'.
Warning: this ship's position is 13 days out of date.

; draft 4.5 m.

Type: Cargo ship. MMSI: 377901062.

Date/timePositionNaut miles runAvg speedWind from/ knotsBaromVisibWave heightAir tempDewpointWater temp
2018-Jun-11 19:51N 25°34' W 079°39'2 5.0
2018-Jun-11 19:26N 25°35' W 079°41'3 4.6
2018-Jun-11 18:50N 25°36' W 079°43'1 4.3
2018-Jun-11 18:30N 25°37' W 079°45'2 4.0
2018-Jun-11 18:00N 25°38' W 079°47'2 4.0
2018-Jun-11 17:30N 25°39' W 079°49'2 3.6
2018-Jun-11 17:00N 25°40' W 079°50'2 3.3
2018-Jun-11 16:30N 25°40' W 079°52'2 4.3
2018-Jun-11 16:00N 25°42' W 079°54'3 5.4
2018-Jun-11 15:30N 25°42' W 079°57'3 5.1
2018-Jun-11 15:00N 25°44' W 079°59'3 5.3
2018-Jun-11 14:30N 25°45' W 080°02'3 6.6
2018-Jun-11 14:00N 25°46' W 080°05'4 7.4
2018-Jun-11 13:30N 25°46' W 080°09'2 3.1
2018-Jun-11 13:00N 25°46' W 080°11'1 2.0
2018-Jun-11 12:30N 25°47' W 080°12'0 0.9
2018-Jun-11 12:00N 25°47' W 080°13'0 0.0
2018-Jun-11 11:24N 25°47' W 080°13'0 0.0
2018-Jun-11 10:54N 25°47' W 080°13'0 0.0
2018-Jun-11 10:27N 25°47' W 080°13'0 0.0
2018-Jun-11 09:57N 25°47' W 080°13'0 0.0
2018-Jun-11 09:27N 25°47' W 080°13'0 0.0
2018-Jun-11 08:57N 25°47' W 080°13'0 0.0
2018-Jun-11 08:27N 25°47' W 080°13'0 0.0
2018-Jun-11 07:57N 25°47' W 080°13'0 0.0
2018-Jun-11 07:27N 25°47' W 080°13'0 0.0
2018-Jun-11 06:57N 25°47' W 080°13'0 0.0
2018-Jun-11 06:30N 25°47' W 080°13'0 0.0
2018-Jun-11 06:00N 25°47' W 080°13'0 0.0
2018-Jun-11 05:30N 25°47' W 080°13'0 0.0
2018-Jun-11 05:00N 25°47' W 080°13'0 0.0
2018-Jun-11 04:30N 25°47' W 080°13'0 0.0
2018-Jun-11 04:00N 25°47' W 080°13'0 0.0
2018-Jun-11 03:30N 25°47' W 080°13'0 0.0
2018-Jun-11 03:00N 25°47' W 080°13'0 0.0
2018-Jun-11 02:30N 25°47' W 080°13'0 0.0
2018-Jun-11 01:57N 25°47' W 080°13'0 0.0
2018-Jun-11 01:30N 25°47' W 080°13'0 0.0
2018-Jun-11 00:57N 25°47' W 080°13'0 0.0
2018-Jun-11 00:30N 25°47' W 080°13'0 0.0
2018-Jun-11 00:00N 25°47' W 080°13'0 0.0
2018-Jun-10 23:30N 25°47' W 080°13'0 0.0
2018-Jun-10 23:00N 25°47' W 080°13'0 0.0
2018-Jun-10 22:30N 25°47' W 080°13'0 0.0
2018-Jun-10 21:57N 25°47' W 080°13'0 0.0
2018-Jun-10 21:30N 25°47' W 080°13'0 0.0
2018-Jun-10 21:00N 25°47' W 080°13'0 0.0
2018-Jun-10 20:30N 25°47' W 080°13'0 0.0
2018-Jun-10 20:00N 25°47' W 080°13'0 0.0
2018-Jun-10 19:30N 25°47' W 080°13'0 0.0
2018-Jun-10 19:00N 25°47' W 080°13'0 0.0
2018-Jun-10 18:30N 25°47' W 080°13'0 0.0
2018-Jun-10 17:54N 25°47' W 080°13'0 0.0
2018-Jun-10 17:30N 25°47' W 080°13'0 0.0
2018-Jun-10 17:00N 25°47' W 080°13'0 0.0
2018-Jun-10 16:27N 25°47' W 080°13'0 0.0
2018-Jun-10 16:00N 25°47' W 080°13'0 0.0
2018-Jun-10 15:24N 25°47' W 080°13'0 0.0
2018-Jun-10 14:51N 25°47' W 080°13'0 0.0
2018-Jun-10 14:00N 25°47' W 080°13'0 0.0
2018-Jun-10 13:27N 25°47' W 080°13'0 0.0
2018-Jun-10 13:00N 25°47' W 080°13'0 0.0
2018-Jun-10 12:30N 25°47' W 080°13'0 0.0
2018-Jun-10 12:00N 25°47' W 080°13'0 0.0
2018-Jun-10 11:30N 25°47' W 080°13'0 0.0
2018-Jun-10 11:00N 25°47' W 080°13'0 0.0
2018-Jun-10 10:30N 25°47' W 080°13'0 0.0
2018-Jun-10 09:57N 25°47' W 080°13'0 0.0
2018-Jun-10 09:30N 25°47' W 080°13'0 0.0
2018-Jun-10 09:00N 25°47' W 080°13'0 0.0
2018-Jun-10 08:30N 25°47' W 080°13'0 0.0
2018-Jun-10 08:00N 25°47' W 080°13'0 0.0
2018-Jun-10 07:30N 25°47' W 080°13'0 0.0
2018-Jun-10 07:00N 25°47' W 080°13'0 0.0
2018-Jun-10 06:27N 25°47' W 080°13'0 0.0
2018-Jun-10 06:00N 25°47' W 080°13'0 0.0
2018-Jun-10 05:30N 25°47' W 080°13'0 0.0
2018-Jun-10 04:57N 25°47' W 080°13'0 0.0
2018-Jun-10 04:30N 25°47' W 080°13'0 0.0
2018-Jun-10 04:00N 25°47' W 080°13'0 0.0
2018-Jun-10 03:30N 25°47' W 080°13'0 0.0
2018-Jun-10 03:00N 25°47' W 080°13'0 0.0
2018-Jun-10 02:29N 25°47' W 080°13'0 0.0
2018-Jun-10 01:59N 25°47' W 080°13'0 0.0
2018-Jun-10 01:29N 25°47' W 080°13'0 0.0
2018-Jun-10 00:59N 25°47' W 080°13'0 0.0
2018-Jun-10 00:29N 25°47' W 080°13'0 0.0
2018-Jun-09 23:59N 25°47' W 080°13'0 0.0
2018-Jun-09 23:29N 25°47' W 080°13'0 0.0
2018-Jun-09 22:59N 25°47' W 080°13'0 0.0
2018-Jun-09 22:29N 25°47' W 080°13'0 0.0
2018-Jun-09 21:59N 25°47' W 080°13'0 0.0
2018-Jun-09 21:29N 25°47' W 080°13'0 0.0
2018-Jun-09 20:59N 25°47' W 080°13'0 0.0
2018-Jun-09 20:29N 25°47' W 080°13'0 0.0
2018-Jun-09 19:59N 25°47' W 080°13'0 0.0
2018-Jun-09 19:29N 25°47' W 080°13'0 0.0
2018-Jun-09 18:59N 25°47' W 080°13'0 0.0
2018-Jun-09 18:29N 25°47' W 080°13'0 0.0
2018-Jun-09 17:59N 25°47' W 080°13'0 0.0
2018-Jun-09 17:29N 25°47' W 080°13'0 0.0
2018-Jun-09 16:59N 25°47' W 080°13'0 0.0
2018-Jun-09 16:29N 25°47' W 080°13'0 0.0
2018-Jun-09 15:59N 25°47' W 080°13'0 0.0
2018-Jun-09 15:29N 25°47' W 080°13'0 0.0
2018-Jun-09 14:29N 25°47' W 080°13'0 0.0
2018-Jun-09 13:56N 25°47' W 080°13'0 0.0
2018-Jun-08 13:59N 25°47' W 080°13'0 0.0
2018-Jun-08 13:29N 25°47' W 080°13'0 0.0
2018-Jun-08 12:59N 25°47' W 080°13'0 0.0
2018-Jun-08 12:29N 25°47' W 080°13'0 0.0
2018-Jun-08 11:59N 25°47' W 080°13'0 0.0
2018-Jun-08 11:26N 25°47' W 080°13'0 0.0
2018-Jun-08 10:59N 25°47' W 080°13'0 0.0
2018-Jun-08 10:29N 25°47' W 080°13'0 0.0
2018-Jun-08 09:59N 25°47' W 080°13'0 0.0
2018-Jun-08 09:29N 25°47' W 080°13'0 0.0
2018-Jun-08 08:59N 25°47' W 080°13'0 0.0
2018-Jun-08 08:25N 25°47' W 080°13'0 0.0
2018-Jun-08 07:58N 25°47' W 080°13'0 0.0
2018-Jun-08 07:28N 25°47' W 080°13'0 0.0
2018-Jun-08 06:58N 25°47' W 080°13'0 0.0
2018-Jun-08 06:28N 25°47' W 080°13'0 0.0
2018-Jun-08 05:58N 25°47' W 080°13'0 0.0
2018-Jun-08 05:28N 25°47' W 080°13'0 0.0
2018-Jun-08 04:52N 25°47' W 080°13'0 0.0
2018-Jun-08 04:25N 25°47' W 080°13'0 0.0
2018-Jun-08 03:52N 25°47' W 080°13'0 0.0
2018-Jun-08 03:28N 25°47' W 080°13'0 0.0
2018-Jun-08 02:55N 25°47' W 080°13'0 0.0
2018-Jun-08 02:22N 25°47' W 080°13'0 0.0
2018-Jun-08 01:58N 25°47' W 080°13'0 0.0
2018-Jun-08 01:28N 25°47' W 080°13'0 0.0
2018-Jun-08 00:55N 25°47' W 080°13'0 0.0
2018-Jun-08 00:28N 25°47' W 080°13'0 0.0
2018-Jun-07 23:58N 25°47' W 080°13'0 0.0
2018-Jun-07 23:28N 25°47' W 080°13'0 0.0
2018-Jun-07 22:55N 25°47' W 080°13'0 0.0
2018-Jun-07 22:28N 25°47' W 080°13'0 0.0
2018-Jun-07 21:58N 25°47' W 080°13'0 0.0
2018-Jun-07 21:25N 25°47' W 080°13'0 0.0
2018-Jun-07 20:55N 25°47' W 080°13'0 0.0
2018-Jun-07 20:28N 25°47' W 080°13'0 0.0
2018-Jun-07 19:58N 25°47' W 080°13'0 0.0
2018-Jun-07 19:28N 25°47' W 080°13'0 0.0
2018-Jun-07 18:58N 25°47' W 080°13'0 0.0
2018-Jun-07 18:28N 25°47' W 080°13'0 0.0
2018-Jun-07 17:55N 25°47' W 080°13'0 0.0
2018-Jun-07 17:28N 25°47' W 080°13'0 0.0
2018-Jun-07 16:58N 25°47' W 080°13'0 0.0
2018-Jun-07 16:28N 25°47' W 080°13'0 0.0
2018-Jun-07 15:58N 25°47' W 080°13'0 0.0
2018-Jun-07 15:28N 25°47' W 080°13'0 0.0
2018-Jun-07 14:58N 25°47' W 080°13'0 0.0
2018-Jun-07 14:28N 25°47' W 080°13'0 0.0
2018-Jun-07 13:58N 25°47' W 080°13'0 0.0
2018-Jun-07 13:28N 25°47' W 080°13'0 0.0
2018-Jun-07 12:58N 25°47' W 080°13'0 0.0
2018-Jun-07 12:28N 25°47' W 080°13'0 0.0
2018-Jun-07 11:58N 25°47' W 080°13'0 0.0
2018-Jun-07 11:28N 25°47' W 080°13'0 0.0
2018-Jun-07 10:58N 25°47' W 080°13'0 0.0
2018-Jun-07 10:28N 25°47' W 080°13'0 0.0
2018-Jun-07 09:58N 25°47' W 080°13'0 0.0
2018-Jun-07 09:28N 25°47' W 080°13'0 0.0
2018-Jun-07 08:58N 25°47' W 080°13'0 0.0
2018-Jun-07 08:28N 25°47' W 080°13'0 0.0
2018-Jun-07 07:58N 25°47' W 080°13'0 0.0
2018-Jun-07 07:28N 25°47' W 080°13'0 0.0
2018-Jun-07 06:58N 25°47' W 080°13'0 0.0
2018-Jun-07 06:28N 25°47' W 080°13'0 0.0
2018-Jun-07 05:58N 25°47' W 080°13'0 0.0
2018-Jun-07 05:28N 25°47' W 080°13'0 0.0
2018-Jun-07 04:58N 25°47' W 080°13'0 0.0
2018-Jun-07 04:28N 25°47' W 080°13'0 0.0
2018-Jun-07 03:58N 25°47' W 080°13'0 0.0
2018-Jun-07 03:25N 25°47' W 080°13'0 0.0
2018-Jun-07 02:55N 25°47' W 080°13'0 0.0
2018-Jun-07 02:28N 25°47' W 080°13'0 0.0
2018-Jun-07 01:58N 25°47' W 080°13'0 0.0
2018-Jun-07 01:28N 25°47' W 080°13'0 0.0
2018-Jun-07 00:58N 25°47' W 080°13'0 0.0
2018-Jun-07 00:28N 25°47' W 080°13'0 0.0
2018-Jun-06 23:55N 25°47' W 080°13'0 0.0
2018-Jun-06 23:28N 25°47' W 080°13'0 0.0
2018-Jun-06 22:58N 25°47' W 080°13'0 0.0
2018-Jun-06 22:25N 25°47' W 080°13'0 0.0
2018-Jun-06 22:00N 25°47' W 080°13'0 0.0
2018-Jun-06 21:30N 25°47' W 080°13'0 0.0
2018-Jun-06 21:00N 25°47' W 080°13'0 0.0
2018-Jun-06 20:30N 25°47' W 080°13'0 0.0
2018-Jun-06 20:00N 25°47' W 080°13'0 0.0
2018-Jun-06 19:30N 25°47' W 080°13'0 0.0
2018-Jun-06 18:57N 25°47' W 080°13'0 0.0
2018-Jun-06 18:27N 25°47' W 080°13'0 0.0
2018-Jun-06 17:57N 25°47' W 080°13'0 0.0
2018-Jun-06 17:27N 25°47' W 080°13'0 0.0
2018-Jun-06 17:00N 25°47' W 080°13'0 0.0
2018-Jun-06 16:30N 25°47' W 080°13'0 0.0
2018-Jun-06 16:00N 25°47' W 080°13'0 0.0
2018-Jun-06 15:27N 25°47' W 080°13'0 0.0
2018-Jun-06 15:00N 25°47' W 080°13'0 0.0
2018-Jun-06 14:30N 25°47' W 080°13'0 0.0
2018-Jun-06 13:57N 25°47' W 080°13'0 0.0
2018-Jun-06 13:30N 25°47' W 080°13'0 0.0
2018-Jun-06 13:00N 25°47' W 080°13'0 0.0
2018-Jun-06 12:30N 25°47' W 080°13'0 0.0
2018-Jun-06 12:00N 25°47' W 080°13'0 0.0
2018-Jun-06 11:30N 25°47' W 080°13'0 0.0
2018-Jun-06 11:00N 25°47' W 080°13'0 0.0
2018-Jun-06 10:27N 25°47' W 080°13'0 0.0
2018-Jun-06 10:00N 25°47' W 080°13'0 0.0
2018-Jun-06 09:30N 25°47' W 080°13'0 0.0
2018-Jun-06 09:00N 25°47' W 080°13'0 0.0
2018-Jun-06 08:30N 25°47' W 080°13'0 0.0
2018-Jun-06 08:00N 25°47' W 080°13'0 0.0
2018-Jun-06 07:30N 25°47' W 080°13'0 0.0
2018-Jun-06 07:00N 25°47' W 080°13'0 0.0
2018-Jun-06 06:30N 25°47' W 080°13'0 0.0
2018-Jun-06 06:00N 25°47' W 080°13'0 0.0
2018-Jun-06 05:30N 25°47' W 080°13'0 0.0
2018-Jun-06 05:00N 25°47' W 080°13'0 0.0
2018-Jun-06 04:30N 25°47' W 080°13'0 0.0
2018-Jun-06 04:00N 25°47' W 080°13'0 0.0
2018-Jun-06 03:30N 25°47' W 080°13'0 0.0
2018-Jun-06 02:54N 25°47' W 080°13'0 0.0
2018-Jun-06 02:30N 25°47' W 080°13'0 0.0
2018-Jun-06 02:00N 25°47' W 080°13'0 0.0
2018-Jun-06 01:30N 25°47' W 080°13'0 0.0
2018-Jun-06 01:00N 25°47' W 080°13'0 0.0
2018-Jun-06 00:30N 25°47' W 080°13'0 0.0
2018-Jun-06 00:00N 25°47' W 080°13'0 0.0
2018-Jun-05 23:21N 25°47' W 080°13'0 0.0
2018-Jun-05 23:00N 25°47' W 080°13'0 0.0
2018-Jun-05 22:30N 25°47' W 080°13'0 0.0
2018-Jun-05 22:00N 25°47' W 080°13'0 0.0
2018-Jun-05 21:30N 25°47' W 080°13'0 0.0
2018-Jun-05 21:00N 25°47' W 080°13'0 0.0
2018-Jun-05 20:30N 25°47' W 080°13'0 0.0
2018-Jun-05 20:00N 25°47' W 080°13'0 0.0
2018-Jun-05 19:27N 25°47' W 080°13'0 0.0
2018-Jun-05 18:57N 25°47' W 080°13'0 0.0
2018-Jun-05 18:24N 25°47' W 080°13'0 0.0
2018-Jun-05 18:00N 25°47' W 080°13'0 0.0
2018-Jun-05 17:27N 25°47' W 080°13'0 0.0
2018-Jun-05 16:57N 25°47' W 080°13'0 0.0
2018-Jun-05 16:30N 25°47' W 080°13'0 0.0
2018-Jun-05 16:00N 25°47' W 080°13'0 0.0
2018-Jun-05 15:30N 25°47' W 080°13'0 0.0
2018-Jun-05 15:00N 25°47' W 080°13'0 0.0
2018-Jun-05 14:27N 25°47' W 080°13'0 0.0
2018-Jun-05 13:57N 25°47' W 080°13'0 0.0
2018-Jun-05 13:27N 25°47' W 080°13'0 0.0
2018-Jun-05 12:57N 25°47' W 080°13'0 0.0
2018-Jun-05 12:30N 25°47' W 080°13'0 0.0
2018-Jun-05 11:57N 25°47' W 080°13'0 0.0
2018-Jun-05 11:29N 25°47' W 080°13'0 0.0
2018-Jun-05 10:59N 25°47' W 080°13'0 0.0
2018-Jun-05 10:29N 25°47' W 080°13'0 0.0
2018-Jun-05 09:59N 25°47' W 080°13'0 0.0
2018-Jun-05 09:29N 25°47' W 080°13'0 0.0
2018-Jun-05 08:59N 25°47' W 080°13'0 0.0
2018-Jun-05 08:29N 25°47' W 080°13'0 0.0
2018-Jun-05 07:59N 25°47' W 080°13'0 0.0
2018-Jun-05 07:29N 25°47' W 080°13'0 0.0
2018-Jun-05 06:59N 25°47' W 080°13'0 0.0
2018-Jun-05 06:29N 25°47' W 080°13'0 0.0
2018-Jun-05 05:59N 25°47' W 080°13'0 0.0
2018-Jun-05 05:29N 25°47' W 080°13'0 0.0
2018-Jun-05 04:59N 25°47' W 080°13'0 0.0
2018-Jun-05 04:26N 25°47' W 080°13'0 0.0
2018-Jun-05 03:59N 25°47' W 080°13'0 0.0
2018-Jun-05 03:29N 25°47' W 080°13'0 0.0
2018-Jun-05 02:59N 25°47' W 080°13'0 0.0
2018-Jun-05 02:29N 25°47' W 080°13'0 0.0
2018-Jun-05 01:59N 25°47' W 080°13'0 0.0
2018-Jun-05 01:29N 25°47' W 080°13'0 0.0
2018-Jun-05 00:59N 25°47' W 080°13'0 0.0
2018-Jun-05 00:29N 25°47' W 080°13'0 0.0
2018-Jun-04 23:59N 25°47' W 080°13'0 0.0
2018-Jun-04 23:26N 25°47' W 080°13'0 0.0
2018-Jun-04 22:56N 25°47' W 080°13'0 0.0
2018-Jun-04 22:29N 25°47' W 080°13'0 0.0
2018-Jun-04 21:59N 25°47' W 080°13'0 0.0
2018-Jun-04 21:29N 25°47' W 080°13'0 0.0
2018-Jun-04 20:59N 25°47' W 080°13'0 0.0
2018-Jun-04 20:23N 25°47' W 080°13'0 0.0
2018-Jun-04 19:59N 25°47' W 080°13'0 0.0
2018-Jun-04 19:26N 25°47' W 080°13'0 0.0
2018-Jun-04 18:59N 25°47' W 080°13'0 0.0
2018-Jun-04 18:26N 25°47' W 080°13'0 0.0
2018-Jun-04 17:59N 25°47' W 080°13'0 0.0
2018-Jun-04 17:29N 25°47' W 080°13'0 0.0
2018-Jun-04 16:59N 25°47' W 080°13'0 0.0
2018-Jun-04 16:26N 25°47' W 080°13'0 0.0
2018-Jun-04 15:56N 25°47' W 080°13'0 0.0
2018-Jun-04 15:26N 25°47' W 080°13'0 0.0
2018-Jun-04 14:59N 25°47' W 080°13'0 0.0
2018-Jun-04 14:26N 25°47' W 080°13'0 0.0
2018-Jun-04 13:59N 25°47' W 080°13'0 0.0
2018-Jun-04 13:26N 25°47' W 080°13'0 0.0
2018-Jun-04 12:56N 25°47' W 080°13'0 0.0
2018-Jun-04 12:29N 25°47' W 080°13'0 0.0
2018-Jun-04 11:59N 25°47' W 080°13'0 0.0
2018-Jun-04 11:29N 25°47' W 080°13'0 0.0
2018-Jun-04 10:59N 25°47' W 080°13'0 0.0
2018-Jun-04 10:29N 25°47' W 080°13'0 0.0
2018-Jun-04 09:59N 25°47' W 080°13'0 0.0
2018-Jun-04 09:29N 25°47' W 080°13'0 0.0
2018-Jun-04 08:59N 25°47' W 080°13'0 0.0
2018-Jun-04 08:29N 25°47' W 080°13'0 0.0
2018-Jun-04 07:59N 25°47' W 080°13'0 0.0
2018-Jun-04 07:29N 25°47' W 080°13'0 0.0
2018-Jun-04 06:59N 25°47' W 080°13'0 0.0
2018-Jun-04 06:29N 25°47' W 080°13'0 0.0
2018-Jun-04 05:59N 25°47' W 080°13'0 0.0
2018-Jun-04 05:29N 25°47' W 080°13'0 0.0
2018-Jun-04 04:59N 25°47' W 080°13'0 0.0
2018-Jun-04 04:29N 25°47' W 080°13'0 0.0
2018-Jun-04 03:59N 25°47' W 080°13'0 0.0
2018-Jun-04 03:29N 25°47' W 080°13'0 0.0
2018-Jun-04 02:59N 25°47' W 080°13'0 0.0
2018-Jun-04 02:29N 25°47' W 080°13'0 0.0
2018-Jun-04 01:58N 25°47' W 080°13'0 0.0
2018-Jun-04 01:28N 25°47' W 080°13'0 0.0
2018-Jun-04 00:58N 25°47' W 080°13'0 0.0
2018-Jun-04 00:28N 25°47' W 080°13'0 0.0
2018-Jun-03 23:58N 25°47' W 080°13'0 0.0
2018-Jun-03 23:28N 25°47' W 080°13'0 0.0
2018-Jun-03 22:58N 25°47' W 080°13'0 0.0
2018-Jun-03 22:25N 25°47' W 080°13'0 0.0
2018-Jun-03 21:58N 25°47' W 080°13'0 0.0
2018-Jun-03 21:25N 25°47' W 080°13'0 0.0
2018-Jun-03 20:58N 25°47' W 080°13'0 0.0
2018-Jun-03 20:22N 25°47' W 080°13'0 0.0
2018-Jun-03 19:52N 25°47' W 080°13'0 0.0
2018-Jun-03 19:22N 25°47' W 080°13'0 0.0
2018-Jun-03 18:58N 25°47' W 080°13'0 0.0
2018-Jun-03 18:28N 25°47' W 080°13'0 0.0
2018-Jun-03 17:58N 25°47' W 080°13'0 0.0
2018-Jun-03 17:28N 25°47' W 080°13'0 0.0
2018-Jun-03 16:55N 25°47' W 080°13'0 0.0
2018-Jun-03 16:28N 25°47' W 080°13'0 0.0
2018-Jun-03 15:58N 25°47' W 080°13'0 0.0
2018-Jun-03 15:28N 25°47' W 080°13'0 0.0
2018-Jun-03 14:55N 25°47' W 080°13'0 0.0
2018-Jun-03 14:28N 25°47' W 080°13'0 0.0
2018-Jun-03 13:58N 25°47' W 080°13'0 0.0
2018-Jun-03 13:25N 25°47' W 080°13'0 0.0
2018-Jun-03 12:58N 25°47' W 080°13'0 0.0
2018-Jun-03 12:28N 25°47' W 080°13'0 0.0
2018-Jun-03 11:58N 25°47' W 080°13'0 0.0
2018-Jun-03 11:28N 25°47' W 080°13'0 0.0
2018-Jun-03 10:58N 25°47' W 080°13'0 0.0
2018-Jun-03 10:28N 25°47' W 080°13'0 0.0
2018-Jun-03 09:58N 25°47' W 080°13'0 0.0
2018-Jun-03 09:28N 25°47' W 080°13'0 0.0
2018-Jun-03 08:58N 25°47' W 080°13'0 0.0
2018-Jun-03 08:28N 25°47' W 080°13'0 0.0
2018-Jun-03 07:58N 25°47' W 080°13'0 0.0
2018-Jun-03 07:28N 25°47' W 080°13'0 0.0
2018-Jun-03 06:58N 25°47' W 080°13'0 0.0
2018-Jun-03 06:25N 25°47' W 080°13'0 0.0
2018-Jun-03 05:58N 25°47' W 080°13'0 0.0
2018-Jun-03 05:28N 25°47' W 080°13'0 0.0
2018-Jun-03 04:58N 25°47' W 080°13'0 0.0
2018-Jun-03 04:28N 25°47' W 080°13'0 0.0
2018-Jun-03 03:55N 25°47' W 080°13'0 0.0
2018-Jun-03 03:28N 25°47' W 080°13'0 0.0
2018-Jun-03 02:58N 25°47' W 080°13'0 0.0
2018-Jun-03 02:28N 25°47' W 080°13'0 0.0
2018-Jun-03 01:58N 25°47' W 080°13'0 0.0
2018-Jun-03 01:28N 25°47' W 080°13'0 0.0
2018-Jun-03 00:58N 25°47' W 080°13'0 0.0
2018-Jun-03 00:28N 25°47' W 080°13'0 0.0
2018-Jun-02 23:58N 25°47' W 080°13'0 0.0
2018-Jun-02 23:28N 25°47' W 080°13'0 0.0
2018-Jun-02 22:58N 25°47' W 080°13'0 0.0
2018-Jun-02 22:28N 25°47' W 080°13'0 0.0
2018-Jun-02 21:58N 25°47' W 080°13'0 0.0
2018-Jun-02 21:25N 25°47' W 080°13'0 0.0
2018-Jun-02 20:55N 25°47' W 080°13'0 0.0
2018-Jun-02 20:19N 25°47' W 080°13'0 0.0
2018-Jun-02 19:52N 25°47' W 080°13'0 0.0
2018-Jun-02 19:28N 25°47' W 080°13'0 0.0
2018-Jun-02 18:52N 25°47' W 080°13'0 0.0
2018-Jun-02 18:28N 25°47' W 080°13'0 0.0
2018-Jun-02 17:58N 25°47' W 080°13'0 0.0
2018-Jun-02 17:31N 25°47' W 080°13'0 0.0
2018-Jun-02 17:01N 25°47' W 080°13'0 0.0
2018-Jun-02 16:28N 25°47' W 080°13'0 0.0
2018-Jun-02 15:51N 25°47' W 080°13'0 0.0
2018-Jun-02 15:31N 25°47' W 080°13'0 0.0
2018-Jun-02 15:00N 25°47' W 080°13'0 0.0
2018-Jun-02 14:30N 25°47' W 080°13'0 0.0
2018-Jun-02 14:00N 25°47' W 080°13'0 0.0
2018-Jun-02 13:30N 25°47' W 080°13'0 0.0
2018-Jun-02 12:54N 25°47' W 080°13'0 0.0
2018-Jun-02 12:27N 25°47' W 080°13'0 0.0
2018-Jun-02 11:54N 25°47' W 080°13'0 0.0
2018-Jun-02 11:30N 25°47' W 080°13'0 0.0
2018-Jun-02 11:00N 25°47' W 080°13'0 0.0
2018-Jun-02 10:30N 25°47' W 080°13'0 0.0
2018-Jun-02 10:00N 25°47' W 080°13'0 0.0
2018-Jun-02 09:27N 25°47' W 080°13'0 0.0
2018-Jun-02 08:57N 25°47' W 080°13'0 0.0
2018-Jun-02 08:30N 25°47' W 080°13'0 0.0
2018-Jun-02 08:00N 25°47' W 080°13'0 0.0
2018-Jun-02 07:30N 25°47' W 080°13'0 0.0
2018-Jun-02 07:00N 25°47' W 080°13'0 0.0
2018-Jun-02 06:27N 25°47' W 080°13'0 0.0
2018-Jun-02 05:57N 25°47' W 080°13'0 0.0
2018-Jun-02 05:30N 25°47' W 080°13'0 0.0
2018-Jun-02 05:00N 25°47' W 080°13'0 0.0
2018-Jun-02 04:30N 25°47' W 080°13'0 0.0
2018-Jun-02 04:00N 25°47' W 080°13'0 0.0
2018-Jun-02 03:30N 25°47' W 080°13'0 0.0
2018-Jun-02 03:00N 25°47' W 080°13'0 0.0
2018-Jun-02 02:30N 25°47' W 080°13'0 0.0
2018-Jun-02 02:00N 25°47' W 080°13'0 0.0
2018-Jun-02 01:30N 25°47' W 080°13'0 0.0
2018-Jun-02 01:00N 25°47' W 080°13'0 0.0
2018-Jun-02 00:30N 25°47' W 080°13'0 0.0
2018-Jun-02 00:00N 25°47' W 080°13'0 0.0
2018-Jun-01 23:30N 25°47' W 080°13'0 0.0
2018-Jun-01 23:00N 25°47' W 080°13'0 0.0
2018-Jun-01 22:30N 25°47' W 080°13'0 0.0
2018-Jun-01 22:00N 25°47' W 080°13'0 0.0
2018-Jun-01 21:30N 25°47' W 080°13'0 0.0
2018-Jun-01 21:00N 25°47' W 080°13'0 0.0
2018-Jun-01 20:30N 25°47' W 080°13'0 0.0
2018-Jun-01 20:00N 25°47' W 080°13'  
Track history (hours):
 
Tides and Currents Weather Stations Pressure Air Temp Water Temp Dewpoint Dewpoint Depression Visibility Wind Speed Wind Dir Waves Ship Positions

Magestic

Last reported at 2018-Jun-11 19:51 UTC. Time now 2018-Jun-25 00:19 UTC.
Position N 25°34' W 079°39'.
Warning: this ship's position is 13 days out of date.

; draft 4.5 m.

Type: Cargo ship. MMSI: 377901062.

Date/timePositionNaut miles runAvg speedWind from/ knotsBaromVisibWave heightAir tempDewpointWater temp
2018-Jun-11 19:51N 25°34' W 079°39'2 5.0
2018-Jun-11 19:26N 25°35' W 079°41'3 4.6
2018-Jun-11 18:50N 25°36' W 079°43'1 4.3
2018-Jun-11 18:30N 25°37' W 079°45'2 4.0
2018-Jun-11 18:00N 25°38' W 079°47'2 4.0
2018-Jun-11 17:30N 25°39' W 079°49'2 3.6
2018-Jun-11 17:00N 25°40' W 079°50'2 3.3
2018-Jun-11 16:30N 25°40' W 079°52'2 4.3
2018-Jun-11 16:00N 25°42' W 079°54'3 5.4
2018-Jun-11 15:30N 25°42' W 079°57'3 5.1
2018-Jun-11 15:00N 25°44' W 079°59'3 5.3
2018-Jun-11 14:30N 25°45' W 080°02'3 6.6
2018-Jun-11 14:00N 25°46' W 080°05'4 7.4
2018-Jun-11 13:30N 25°46' W 080°09'2 3.1
2018-Jun-11 13:00N 25°46' W 080°11'1 2.0
2018-Jun-11 12:30N 25°47' W 080°12'0 0.9
2018-Jun-11 12:00N 25°47' W 080°13'0 0.0
2018-Jun-11 11:24N 25°47' W 080°13'0 0.0
2018-Jun-11 10:54N 25°47' W 080°13'0 0.0
2018-Jun-11 10:27N 25°47' W 080°13'0 0.0
2018-Jun-11 09:57N 25°47' W 080°13'0 0.0
2018-Jun-11 09:27N 25°47' W 080°13'0 0.0
2018-Jun-11 08:57N 25°47' W 080°13'0 0.0
2018-Jun-11 08:27N 25°47' W 080°13'0 0.0
2018-Jun-11 07:57N 25°47' W 080°13'0 0.0
2018-Jun-11 07:27N 25°47' W 080°13'0 0.0
2018-Jun-11 06:57N 25°47' W 080°13'0 0.0
2018-Jun-11 06:30N 25°47' W 080°13'0 0.0
2018-Jun-11 06:00N 25°47' W 080°13'0 0.0
2018-Jun-11 05:30N 25°47' W 080°13'0 0.0
2018-Jun-11 05:00N 25°47' W 080°13'0 0.0
2018-Jun-11 04:30N 25°47' W 080°13'0 0.0
2018-Jun-11 04:00N 25°47' W 080°13'0 0.0
2018-Jun-11 03:30N 25°47' W 080°13'0 0.0
2018-Jun-11 03:00N 25°47' W 080°13'0 0.0
2018-Jun-11 02:30N 25°47' W 080°13'0 0.0
2018-Jun-11 01:57N 25°47' W 080°13'0 0.0
2018-Jun-11 01:30N 25°47' W 080°13'0 0.0
2018-Jun-11 00:57N 25°47' W 080°13'0 0.0
2018-Jun-11 00:30N 25°47' W 080°13'0 0.0
2018-Jun-11 00:00N 25°47' W 080°13'0 0.0
2018-Jun-10 23:30N 25°47' W 080°13'0 0.0
2018-Jun-10 23:00N 25°47' W 080°13'0 0.0
2018-Jun-10 22:30N 25°47' W 080°13'0 0.0
2018-Jun-10 21:57N 25°47' W 080°13'0 0.0
2018-Jun-10 21:30N 25°47' W 080°13'0 0.0
2018-Jun-10 21:00N 25°47' W 080°13'0 0.0
2018-Jun-10 20:30N 25°47' W 080°13'0 0.0
2018-Jun-10 20:00N 25°47' W 080°13'0 0.0
2018-Jun-10 19:30N 25°47' W 080°13'0 0.0
2018-Jun-10 19:00N 25°47' W 080°13'0 0.0
2018-Jun-10 18:30N 25°47' W 080°13'0 0.0
2018-Jun-10 17:54N 25°47' W 080°13'0 0.0
2018-Jun-10 17:30N 25°47' W 080°13'0 0.0
2018-Jun-10 17:00N 25°47' W 080°13'0 0.0
2018-Jun-10 16:27N 25°47' W 080°13'0 0.0
2018-Jun-10 16:00N 25°47' W 080°13'0 0.0
2018-Jun-10 15:24N 25°47' W 080°13'0 0.0
2018-Jun-10 14:51N 25°47' W 080°13'0 0.0
2018-Jun-10 14:00N 25°47' W 080°13'0 0.0
2018-Jun-10 13:27N 25°47' W 080°13'0 0.0
2018-Jun-10 13:00N 25°47' W 080°13'0 0.0
2018-Jun-10 12:30N 25°47' W 080°13'0 0.0
2018-Jun-10 12:00N 25°47' W 080°13'0 0.0
2018-Jun-10 11:30N 25°47' W 080°13'0 0.0
2018-Jun-10 11:00N 25°47' W 080°13'0 0.0
2018-Jun-10 10:30N 25°47' W 080°13'0 0.0
2018-Jun-10 09:57N 25°47' W 080°13'0 0.0
2018-Jun-10 09:30N 25°47' W 080°13'0 0.0
2018-Jun-10 09:00N 25°47' W 080°13'0 0.0
2018-Jun-10 08:30N 25°47' W 080°13'0 0.0
2018-Jun-10 08:00N 25°47' W 080°13'0 0.0
2018-Jun-10 07:30N 25°47' W 080°13'0 0.0
2018-Jun-10 07:00N 25°47' W 080°13'0 0.0
2018-Jun-10 06:27N 25°47' W 080°13'0 0.0
2018-Jun-10 06:00N 25°47' W 080°13'0 0.0
2018-Jun-10 05:30N 25°47' W 080°13'0 0.0
2018-Jun-10 04:57N 25°47' W 080°13'0 0.0
2018-Jun-10 04:30N 25°47' W 080°13'0 0.0
2018-Jun-10 04:00N 25°47' W 080°13'0 0.0
2018-Jun-10 03:30N 25°47' W 080°13'0 0.0
2018-Jun-10 03:00N 25°47' W 080°13'0 0.0
2018-Jun-10 02:29N 25°47' W 080°13'0 0.0
2018-Jun-10 01:59N 25°47' W 080°13'0 0.0
2018-Jun-10 01:29N 25°47' W 080°13'0 0.0
2018-Jun-10 00:59N 25°47' W 080°13'0 0.0
2018-Jun-10 00:29N 25°47' W 080°13'0 0.0
2018-Jun-09 23:59N 25°47' W 080°13'0 0.0
2018-Jun-09 23:29N 25°47' W 080°13'0 0.0
2018-Jun-09 22:59N 25°47' W 080°13'0 0.0
2018-Jun-09 22:29N 25°47' W 080°13'0 0.0
2018-Jun-09 21:59N 25°47' W 080°13'0 0.0
2018-Jun-09 21:29N 25°47' W 080°13'0 0.0
2018-Jun-09 20:59N 25°47' W 080°13'0 0.0
2018-Jun-09 20:29N 25°47' W 080°13'0 0.0
2018-Jun-09 19:59N 25°47' W 080°13'0 0.0
2018-Jun-09 19:29N 25°47' W 080°13'0 0.0
2018-Jun-09 18:59N 25°47' W 080°13'0 0.0
2018-Jun-09 18:29N 25°47' W 080°13'0 0.0
2018-Jun-09 17:59N 25°47' W 080°13'0 0.0
2018-Jun-09 17:29N 25°47' W 080°13'0 0.0
2018-Jun-09 16:59N 25°47' W 080°13'0 0.0
2018-Jun-09 16:29N 25°47' W 080°13'0 0.0
2018-Jun-09 15:59N 25°47' W 080°13'0 0.0
2018-Jun-09 15:29N 25°47' W 080°13'0 0.0
2018-Jun-09 14:29N 25°47' W 080°13'0 0.0
2018-Jun-09 13:56N 25°47' W 080°13'0 0.0
2018-Jun-08 13:59N 25°47' W 080°13'0 0.0
2018-Jun-08 13:29N 25°47' W 080°13'0 0.0
2018-Jun-08 12:59N 25°47' W 080°13'0 0.0
2018-Jun-08 12:29N 25°47' W 080°13'0 0.0
2018-Jun-08 11:59N 25°47' W 080°13'0 0.0
2018-Jun-08 11:26N 25°47' W 080°13'0 0.0
2018-Jun-08 10:59N 25°47' W 080°13'0 0.0
2018-Jun-08 10:29N 25°47' W 080°13'0 0.0
2018-Jun-08 09:59N 25°47' W 080°13'0 0.0
2018-Jun-08 09:29N 25°47' W 080°13'0 0.0
2018-Jun-08 08:59N 25°47' W 080°13'0 0.0
2018-Jun-08 08:25N 25°47' W 080°13'0 0.0
2018-Jun-08 07:58N 25°47' W 080°13'0 0.0
2018-Jun-08 07:28N 25°47' W 080°13'0 0.0
2018-Jun-08 06:58N 25°47' W 080°13'0 0.0
2018-Jun-08 06:28N 25°47' W 080°13'0 0.0
2018-Jun-08 05:58N 25°47' W 080°13'0 0.0
2018-Jun-08 05:28N 25°47' W 080°13'0 0.0
2018-Jun-08 04:52N 25°47' W 080°13'0 0.0
2018-Jun-08 04:25N 25°47' W 080°13'0 0.0
2018-Jun-08 03:52N 25°47' W 080°13'0 0.0
2018-Jun-08 03:28N 25°47' W 080°13'0 0.0
2018-Jun-08 02:55N 25°47' W 080°13'0 0.0
2018-Jun-08 02:22N 25°47' W 080°13'0 0.0
2018-Jun-08 01:58N 25°47' W 080°13'0 0.0
2018-Jun-08 01:28N 25°47' W 080°13'0 0.0
2018-Jun-08 00:55N 25°47' W 080°13'0 0.0
2018-Jun-08 00:28N 25°47' W 080°13'0 0.0
2018-Jun-07 23:58N 25°47' W 080°13'0 0.0
2018-Jun-07 23:28N 25°47' W 080°13'0 0.0
2018-Jun-07 22:55N 25°47' W 080°13'0 0.0
2018-Jun-07 22:28N 25°47' W 080°13'0 0.0
2018-Jun-07 21:58N 25°47' W 080°13'0 0.0
2018-Jun-07 21:25N 25°47' W 080°13'0 0.0
2018-Jun-07 20:55N 25°47' W 080°13'0 0.0
2018-Jun-07 20:28N 25°47' W 080°13'0 0.0
2018-Jun-07 19:58N 25°47' W 080°13'0 0.0
2018-Jun-07 19:28N 25°47' W 080°13'0 0.0
2018-Jun-07 18:58N 25°47' W 080°13'0 0.0
2018-Jun-07 18:28N 25°47' W 080°13'0 0.0
2018-Jun-07 17:55N 25°47' W 080°13'0 0.0
2018-Jun-07 17:28N 25°47' W 080°13'0 0.0
2018-Jun-07 16:58N 25°47' W 080°13'0 0.0
2018-Jun-07 16:28N 25°47' W 080°13'0 0.0
2018-Jun-07 15:58N 25°47' W 080°13'0 0.0
2018-Jun-07 15:28N 25°47' W 080°13'0 0.0
2018-Jun-07 14:58N 25°47' W 080°13'0 0.0
2018-Jun-07 14:28N 25°47' W 080°13'0 0.0
2018-Jun-07 13:58N 25°47' W 080°13'0 0.0
2018-Jun-07 13:28N 25°47' W 080°13'0 0.0
2018-Jun-07 12:58N 25°47' W 080°13'0 0.0
2018-Jun-07 12:28N 25°47' W 080°13'0 0.0
2018-Jun-07 11:58N 25°47' W 080°13'0 0.0
2018-Jun-07 11:28N 25°47' W 080°13'0 0.0
2018-Jun-07 10:58N 25°47' W 080°13'0 0.0
2018-Jun-07 10:28N 25°47' W 080°13'0 0.0
2018-Jun-07 09:58N 25°47' W 080°13'0 0.0
2018-Jun-07 09:28N 25°47' W 080°13'0 0.0
2018-Jun-07 08:58N 25°47' W 080°13'0 0.0
2018-Jun-07 08:28N 25°47' W 080°13'0 0.0
2018-Jun-07 07:58N 25°47' W 080°13'0 0.0
2018-Jun-07 07:28N 25°47' W 080°13'0 0.0
2018-Jun-07 06:58N 25°47' W 080°13'0 0.0
2018-Jun-07 06:28N 25°47' W 080°13'0 0.0
2018-Jun-07 05:58N 25°47' W 080°13'0 0.0
2018-Jun-07 05:28N 25°47' W 080°13'0 0.0
2018-Jun-07 04:58N 25°47' W 080°13'0 0.0
2018-Jun-07 04:28N 25°47' W 080°13'0 0.0
2018-Jun-07 03:58N 25°47' W 080°13'0 0.0
2018-Jun-07 03:25N 25°47' W 080°13'0 0.0
2018-Jun-07 02:55N 25°47' W 080°13'0 0.0
2018-Jun-07 02:28N 25°47' W 080°13'0 0.0
2018-Jun-07 01:58N 25°47' W 080°13'0 0.0
2018-Jun-07 01:28N 25°47' W 080°13'0 0.0
2018-Jun-07 00:58N 25°47' W 080°13'0 0.0
2018-Jun-07 00:28N 25°47' W 080°13'0 0.0
2018-Jun-06 23:55N 25°47' W 080°13'0 0.0
2018-Jun-06 23:28N 25°47' W 080°13'0 0.0
2018-Jun-06 22:58N 25°47' W 080°13'0 0.0
2018-Jun-06 22:25N 25°47' W 080°13'0 0.0
2018-Jun-06 22:00N 25°47' W 080°13'0 0.0
2018-Jun-06 21:30N 25°47' W 080°13'0 0.0
2018-Jun-06 21:00N 25°47' W 080°13'0 0.0
2018-Jun-06 20:30N 25°47' W 080°13'0 0.0
2018-Jun-06 20:00N 25°47' W 080°13'0 0.0
2018-Jun-06 19:30N 25°47' W 080°13'0 0.0
2018-Jun-06 18:57N 25°47' W 080°13'0 0.0
2018-Jun-06 18:27N 25°47' W 080°13'0 0.0
2018-Jun-06 17:57N 25°47' W 080°13'0 0.0
2018-Jun-06 17:27N 25°47' W 080°13'0 0.0
2018-Jun-06 17:00N 25°47' W 080°13'0 0.0
2018-Jun-06 16:30N 25°47' W 080°13'0 0.0
2018-Jun-06 16:00N 25°47' W 080°13'0 0.0
2018-Jun-06 15:27N 25°47' W 080°13'0 0.0
2018-Jun-06 15:00N 25°47' W 080°13'0 0.0
2018-Jun-06 14:30N 25°47' W 080°13'0 0.0
2018-Jun-06 13:57N 25°47' W 080°13'0 0.0
2018-Jun-06 13:30N 25°47' W 080°13'0 0.0
2018-Jun-06 13:00N 25°47' W 080°13'0 0.0
2018-Jun-06 12:30N 25°47' W 080°13'0 0.0
2018-Jun-06 12:00N 25°47' W 080°13'0 0.0
2018-Jun-06 11:30N 25°47' W 080°13'0 0.0
2018-Jun-06 11:00N 25°47' W 080°13'0 0.0
2018-Jun-06 10:27N 25°47' W 080°13'0 0.0
2018-Jun-06 10:00N 25°47' W 080°13'0 0.0
2018-Jun-06 09:30N 25°47' W 080°13'0 0.0
2018-Jun-06 09:00N 25°47' W 080°13'0 0.0
2018-Jun-06 08:30N 25°47' W 080°13'0 0.0
2018-Jun-06 08:00N 25°47' W 080°13'0 0.0
2018-Jun-06 07:30N 25°47' W 080°13'0 0.0
2018-Jun-06 07:00N 25°47' W 080°13'0 0.0
2018-Jun-06 06:30N 25°47' W 080°13'0 0.0
2018-Jun-06 06:00N 25°47' W 080°13'0 0.0
2018-Jun-06 05:30N 25°47' W 080°13'0 0.0
2018-Jun-06 05:00N 25°47' W 080°13'0 0.0
2018-Jun-06 04:30N 25°47' W 080°13'0 0.0
2018-Jun-06 04:00N 25°47' W 080°13'0 0.0
2018-Jun-06 03:30N 25°47' W 080°13'0 0.0
2018-Jun-06 02:54N 25°47' W 080°13'0 0.0
2018-Jun-06 02:30N 25°47' W 080°13'0 0.0
2018-Jun-06 02:00N 25°47' W 080°13'0 0.0
2018-Jun-06 01:30N 25°47' W 080°13'0 0.0
2018-Jun-06 01:00N 25°47' W 080°13'0 0.0
2018-Jun-06 00:30N 25°47' W 080°13'0 0.0
2018-Jun-06 00:00N 25°47' W 080°13'0 0.0
2018-Jun-05 23:21N 25°47' W 080°13'0 0.0
2018-Jun-05 23:00N 25°47' W 080°13'0 0.0
2018-Jun-05 22:30N 25°47' W 080°13'0 0.0
2018-Jun-05 22:00N 25°47' W 080°13'0 0.0
2018-Jun-05 21:30N 25°47' W 080°13'0 0.0
2018-Jun-05 21:00N 25°47' W 080°13'0 0.0
2018-Jun-05 20:30N 25°47' W 080°13'0 0.0
2018-Jun-05 20:00N 25°47' W 080°13'0 0.0
2018-Jun-05 19:27N 25°47' W 080°13'0 0.0
2018-Jun-05 18:57N 25°47' W 080°13'0 0.0
2018-Jun-05 18:24N 25°47' W 080°13'0 0.0
2018-Jun-05 18:00N 25°47' W 080°13'0 0.0
2018-Jun-05 17:27N 25°47' W 080°13'0 0.0
2018-Jun-05 16:57N 25°47' W 080°13'0 0.0
2018-Jun-05 16:30N 25°47' W 080°13'0 0.0
2018-Jun-05 16:00N 25°47' W 080°13'0 0.0
2018-Jun-05 15:30N 25°47' W 080°13'0 0.0
2018-Jun-05 15:00N 25°47' W 080°13'0 0.0
2018-Jun-05 14:27N 25°47' W 080°13'0 0.0
2018-Jun-05 13:57N 25°47' W 080°13'0 0.0
2018-Jun-05 13:27N 25°47' W 080°13'0 0.0
2018-Jun-05 12:57N 25°47' W 080°13'0 0.0
2018-Jun-05 12:30N 25°47' W 080°13'0 0.0
2018-Jun-05 11:57N 25°47' W 080°13'0 0.0
2018-Jun-05 11:29N 25°47' W 080°13'0 0.0
2018-Jun-05 10:59N 25°47' W 080°13'0 0.0
2018-Jun-05 10:29N 25°47' W 080°13'0 0.0
2018-Jun-05 09:59N 25°47' W 080°13'0 0.0
2018-Jun-05 09:29N 25°47' W 080°13'0 0.0
2018-Jun-05 08:59N 25°47' W 080°13'0 0.0
2018-Jun-05 08:29N 25°47' W 080°13'0 0.0
2018-Jun-05 07:59N 25°47' W 080°13'0 0.0
2018-Jun-05 07:29N 25°47' W 080°13'0 0.0
2018-Jun-05 06:59N 25°47' W 080°13'0 0.0
2018-Jun-05 06:29N 25°47' W 080°13'0 0.0
2018-Jun-05 05:59N 25°47' W 080°13'0 0.0
2018-Jun-05 05:29N 25°47' W 080°13'0 0.0
2018-Jun-05 04:59N 25°47' W 080°13'0 0.0
2018-Jun-05 04:26N 25°47' W 080°13'0 0.0
2018-Jun-05 03:59N 25°47' W 080°13'0 0.0
2018-Jun-05 03:29N 25°47' W 080°13'0 0.0
2018-Jun-05 02:59N 25°47' W 080°13'0 0.0
2018-Jun-05 02:29N 25°47' W 080°13'0 0.0
2018-Jun-05 01:59N 25°47' W 080°13'0 0.0
2018-Jun-05 01:29N 25°47' W 080°13'0 0.0
2018-Jun-05 00:59N 25°47' W 080°13'0 0.0
2018-Jun-05 00:29N 25°47' W 080°13'0 0.0
2018-Jun-04 23:59N 25°47' W 080°13'0 0.0
2018-Jun-04 23:26N 25°47' W 080°13'0 0.0
2018-Jun-04 22:56N 25°47' W 080°13'0 0.0
2018-Jun-04 22:29N 25°47' W 080°13'0 0.0
2018-Jun-04 21:59N 25°47' W 080°13'0 0.0
2018-Jun-04 21:29N 25°47' W 080°13'0 0.0
2018-Jun-04 20:59N 25°47' W 080°13'0 0.0
2018-Jun-04 20:23N 25°47' W 080°13'0 0.0
2018-Jun-04 19:59N 25°47' W 080°13'0 0.0
2018-Jun-04 19:26N 25°47' W 080°13'0 0.0
2018-Jun-04 18:59N 25°47' W 080°13'0 0.0
2018-Jun-04 18:26N 25°47' W 080°13'0 0.0
2018-Jun-04 17:59N 25°47' W 080°13'0 0.0
2018-Jun-04 17:29N 25°47' W 080°13'0 0.0
2018-Jun-04 16:59N 25°47' W 080°13'0 0.0
2018-Jun-04 16:26N 25°47' W 080°13'0 0.0
2018-Jun-04 15:56N 25°47' W 080°13'0 0.0
2018-Jun-04 15:26N 25°47' W 080°13'0 0.0
2018-Jun-04 14:59N 25°47' W 080°13'0 0.0
2018-Jun-04 14:26N 25°47' W 080°13'0 0.0
2018-Jun-04 13:59N 25°47' W 080°13'0 0.0
2018-Jun-04 13:26N 25°47' W 080°13'0 0.0
2018-Jun-04 12:56N 25°47' W 080°13'0 0.0
2018-Jun-04 12:29N 25°47' W 080°13'0 0.0
2018-Jun-04 11:59N 25°47' W 080°13'0 0.0
2018-Jun-04 11:29N 25°47' W 080°13'0 0.0
2018-Jun-04 10:59N 25°47' W 080°13'0 0.0
2018-Jun-04 10:29N 25°47' W 080°13'0 0.0
2018-Jun-04 09:59N 25°47' W 080°13'0 0.0
2018-Jun-04 09:29N 25°47' W 080°13'0 0.0
2018-Jun-04 08:59N 25°47' W 080°13'0 0.0
2018-Jun-04 08:29N 25°47' W 080°13'0 0.0
2018-Jun-04 07:59N 25°47' W 080°13'0 0.0
2018-Jun-04 07:29N 25°47' W 080°13'0 0.0
2018-Jun-04 06:59N 25°47' W 080°13'0 0.0
2018-Jun-04 06:29N 25°47' W 080°13'0 0.0
2018-Jun-04 05:59N 25°47' W 080°13'0 0.0
2018-Jun-04 05:29N 25°47' W 080°13'0 0.0
2018-Jun-04 04:59N 25°47' W 080°13'0 0.0
2018-Jun-04 04:29N 25°47' W 080°13'0 0.0
2018-Jun-04 03:59N 25°47' W 080°13'0 0.0
2018-Jun-04 03:29N 25°47' W 080°13'0 0.0
2018-Jun-04 02:59N 25°47' W 080°13'0 0.0
2018-Jun-04 02:29N 25°47' W 080°13'0 0.0
2018-Jun-04 01:58N 25°47' W 080°13'0 0.0
2018-Jun-04 01:28N 25°47' W 080°13'0 0.0
2018-Jun-04 00:58N 25°47' W 080°13'0 0.0
2018-Jun-04 00:28N 25°47' W 080°13'0 0.0
2018-Jun-03 23:58N 25°47' W 080°13'0 0.0
2018-Jun-03 23:28N 25°47' W 080°13'0 0.0
2018-Jun-03 22:58N 25°47' W 080°13'0 0.0
2018-Jun-03 22:25N 25°47' W 080°13'0 0.0
2018-Jun-03 21:58N 25°47' W 080°13'0 0.0
2018-Jun-03 21:25N 25°47' W 080°13'0 0.0
2018-Jun-03 20:58N 25°47' W 080°13'0 0.0
2018-Jun-03 20:22N 25°47' W 080°13'0 0.0
2018-Jun-03 19:52N 25°47' W 080°13'0 0.0
2018-Jun-03 19:22N 25°47' W 080°13'0 0.0
2018-Jun-03 18:58N 25°47' W 080°13'0 0.0
2018-Jun-03 18:28N 25°47' W 080°13'0 0.0
2018-Jun-03 17:58N 25°47' W 080°13'0 0.0
2018-Jun-03 17:28N 25°47' W 080°13'0 0.0
2018-Jun-03 16:55N 25°47' W 080°13'0 0.0
2018-Jun-03 16:28N 25°47' W 080°13'0 0.0
2018-Jun-03 15:58N 25°47' W 080°13'0 0.0
2018-Jun-03 15:28N 25°47' W 080°13'0 0.0
2018-Jun-03 14:55N 25°47' W 080°13'0 0.0
2018-Jun-03 14:28N 25°47' W 080°13'0 0.0
2018-Jun-03 13:58N 25°47' W 080°13'0 0.0
2018-Jun-03 13:25N 25°47' W 080°13'0 0.0
2018-Jun-03 12:58N 25°47' W 080°13'0 0.0
2018-Jun-03 12:28N 25°47' W 080°13'0 0.0
2018-Jun-03 11:58N 25°47' W 080°13'0 0.0
2018-Jun-03 11:28N 25°47' W 080°13'0 0.0
2018-Jun-03 10:58N 25°47' W 080°13'0 0.0
2018-Jun-03 10:28N 25°47' W 080°13'0 0.0
2018-Jun-03 09:58N 25°47' W 080°13'0 0.0
2018-Jun-03 09:28N 25°47' W 080°13'0 0.0
2018-Jun-03 08:58N 25°47' W 080°13'0 0.0
2018-Jun-03 08:28N 25°47' W 080°13'0 0.0
2018-Jun-03 07:58N 25°47' W 080°13'0 0.0
2018-Jun-03 07:28N 25°47' W 080°13'0 0.0
2018-Jun-03 06:58N 25°47' W 080°13'0 0.0
2018-Jun-03 06:25N 25°47' W 080°13'0 0.0
2018-Jun-03 05:58N 25°47' W 080°13'0 0.0
2018-Jun-03 05:28N 25°47' W 080°13'0 0.0
2018-Jun-03 04:58N 25°47' W 080°13'0 0.0
2018-Jun-03 04:28N 25°47' W 080°13'0 0.0
2018-Jun-03 03:55N 25°47' W 080°13'0 0.0
2018-Jun-03 03:28N 25°47' W 080°13'0 0.0
2018-Jun-03 02:58N 25°47' W 080°13'0 0.0
2018-Jun-03 02:28N 25°47' W 080°13'0 0.0
2018-Jun-03 01:58N 25°47' W 080°13'0 0.0
2018-Jun-03 01:28N 25°47' W 080°13'0 0.0
2018-Jun-03 00:58N 25°47' W 080°13'0 0.0
2018-Jun-03 00:28N 25°47' W 080°13'0 0.0
2018-Jun-02 23:58N 25°47' W 080°13'0 0.0
2018-Jun-02 23:28N 25°47' W 080°13'0 0.0
2018-Jun-02 22:58N 25°47' W 080°13'0 0.0
2018-Jun-02 22:28N 25°47' W 080°13'0 0.0
2018-Jun-02 21:58N 25°47' W 080°13'0 0.0
2018-Jun-02 21:25N 25°47' W 080°13'0 0.0
2018-Jun-02 20:55N 25°47' W 080°13'0 0.0
2018-Jun-02 20:19N 25°47' W 080°13'0 0.0
2018-Jun-02 19:52N 25°47' W 080°13'0 0.0
2018-Jun-02 19:28N 25°47' W 080°13'0 0.0
2018-Jun-02 18:52N 25°47' W 080°13'0 0.0
2018-Jun-02 18:28N 25°47' W 080°13'0 0.0
2018-Jun-02 17:58N 25°47' W 080°13'0 0.0
2018-Jun-02 17:31N 25°47' W 080°13'0 0.0
2018-Jun-02 17:01N 25°47' W 080°13'0 0.0
2018-Jun-02 16:28N 25°47' W 080°13'0 0.0
2018-Jun-02 15:51N 25°47' W 080°13'0 0.0
2018-Jun-02 15:31N 25°47' W 080°13'0 0.0
2018-Jun-02 15:00N 25°47' W 080°13'0 0.0
2018-Jun-02 14:30N 25°47' W 080°13'0 0.0
2018-Jun-02 14:00N 25°47' W 080°13'0 0.0
2018-Jun-02 13:30N 25°47' W 080°13'0 0.0
2018-Jun-02 12:54N 25°47' W 080°13'0 0.0
2018-Jun-02 12:27N 25°47' W 080°13'0 0.0
2018-Jun-02 11:54N 25°47' W 080°13'0 0.0
2018-Jun-02 11:30N 25°47' W 080°13'0 0.0
2018-Jun-02 11:00N 25°47' W 080°13'0 0.0
2018-Jun-02 10:30N 25°47' W 080°13'0 0.0
2018-Jun-02 10:00N 25°47' W 080°13'0 0.0
2018-Jun-02 09:27N 25°47' W 080°13'0 0.0
2018-Jun-02 08:57N 25°47' W 080°13'0 0.0
2018-Jun-02 08:30N 25°47' W 080°13'0 0.0
2018-Jun-02 08:00N 25°47' W 080°13'0 0.0
2018-Jun-02 07:30N 25°47' W 080°13'0 0.0
2018-Jun-02 07:00N 25°47' W 080°13'0 0.0
2018-Jun-02 06:27N 25°47' W 080°13'0 0.0
2018-Jun-02 05:57N 25°47' W 080°13'0 0.0
2018-Jun-02 05:30N 25°47' W 080°13'0 0.0
2018-Jun-02 05:00N 25°47' W 080°13'0 0.0
2018-Jun-02 04:30N 25°47' W 080°13'0 0.0
2018-Jun-02 04:00N 25°47' W 080°13'0 0.0
2018-Jun-02 03:30N 25°47' W 080°13'0 0.0
2018-Jun-02 03:00N 25°47' W 080°13'0 0.0
2018-Jun-02 02:30N 25°47' W 080°13'0 0.0
2018-Jun-02 02:00N 25°47' W 080°13'0 0.0
2018-Jun-02 01:30N 25°47' W 080°13'0 0.0
2018-Jun-02 01:00N 25°47' W 080°13'0 0.0
2018-Jun-02 00:30N 25°47' W 080°13'0 0.0
2018-Jun-02 00:00N 25°47' W 080°13'0 0.0
2018-Jun-01 23:30N 25°47' W 080°13'0 0.0
2018-Jun-01 23:00N 25°47' W 080°13'0 0.0
2018-Jun-01 22:30N 25°47' W 080°13'0 0.0
2018-Jun-01 22:00N 25°47' W 080°13'0 0.0
2018-Jun-01 21:30N 25°47' W 080°13'0 0.0
2018-Jun-01 21:00N 25°47' W 080°13'0 0.0
2018-Jun-01 20:30N 25°47' W 080°13'0 0.0
2018-Jun-01 20:00N 25°47' W 080°13'  

Dump ship's entire track history